• Join FlightAware (Why Join?)
  • Login
  • US Flag 
06:39AM EDT


 

Airport Tracker/Info


-or-


 

Live Flight TrackerFlight Track Log ✈ EJA820 ✈ 19-Apr-2013 ✈ KLZU - KHKY

Flight Track Log - Related Links

Times and Time Zones

All times are in EDT time to prevent confusion due to time zone crossing. See the EJA820 flight status page for this flight to view local times or setup timezone preferences in your user account.

Time Position Orientation Groundspeed Altitude Reporting Facility
EDT Latitude Longitude Course Direction KTS MPH feet Rate Location/Type
07:37PM 33.9500 -83.9833 129° Southeast 202 232 2,500  Level Atlanta TRACON
07:38PM 33.9167 -83.9333 129° Southeast 232 267 5,900 2,940 Climbing Atlanta TRACON
07:39PM 33.8667 -83.8500 126° Southeast 298 343 8,400 2,340 Climbing Atlanta TRACON
07:40PM 33.8794 -83.7711 79° East 326 375 10,300 2,160 Climbing Atlanta Center
07:41PM 33.8981 -83.6458 80° East 358 412 12,500 2,580 Climbing Atlanta Center
07:42PM 33.9183 -83.5106 80° East 371 427 15,500 2,160 Climbing Atlanta Center
07:43PM 33.9344 -83.3803 81° East 377 434 16,900 1,680 Climbing Atlanta Center
07:44PM 33.9525 -83.2425 81° East 401 461 18,900 1,920 Climbing Atlanta Center
07:45PM 33.9869 -83.1119 72° East 415 478 20,800 1,020 Climbing Atlanta Center
07:46PM 34.0844 -83.0231 37° Northeast 415 478 21,000 60 Climbing Atlanta Center
07:47PM 34.1881 -82.9589 27° Northeast 420 483 21,000  Level Atlanta Center
07:48PM 34.3003 -82.8972 24° Northeast 420 483 21,100  Climbing Atlanta Center
07:49PM 34.4042 -82.8378 25° Northeast 420 483 21,000 -60 Descending Atlanta Center
07:50PM 34.5142 -82.7783 24° Northeast 414 476 21,000  Level Atlanta Center
07:51PM 34.6178 -82.7186 25° Northeast 419 482 21,000  Level Atlanta Center
07:52PM 34.7256 -82.6564 25° Northeast 419 482 21,000  Level Atlanta Center
07:53PM 34.8336 -82.5989 24° Northeast 419 482 21,000  Level Atlanta Center
07:54PM 34.9411 -82.5361 26° Northeast 419 482 21,000  Level Atlanta Center
07:55PM 35.0489 -82.4708 26° Northeast 424 488 21,000  Level Atlanta Center
07:56PM 35.1589 -82.4128 23° Northeast 424 488 21,000  Level Atlanta Center
07:57PM 35.2706 -82.3497 25° Northeast 424 488 21,000 -1,260 Level Atlanta Center
07:58PM 35.3719 -82.2914 25° Northeast 413 475 18,500 -2,880 Descending Atlanta Center
07:59PM 35.4414 -82.1856 51° Northeast 385 443 15,300 -2,520 Descending Atlanta Center
08:00PM 35.4875 -82.0672 64° Northeast 390 449 13,500 -2,100 Descending Atlanta Center
08:01PM 35.5294 -81.9514 66° East 376 433 11,200 -2,220 Descending Atlanta Center
08:02PM 35.5694 -81.8481 65° Northeast 352 405 9,100 -2,160 Descending Atlanta Center
08:03PM 35.6072 -81.7475 65° Northeast 321 369 6,900 -2,220 Descending Atlanta Center
08:03PM 35.6331 -81.6831 64° Northeast 306 352 5,400 -1,920 Descending Atlanta Center
08:04PM 35.6389 -81.6622 71° East 308 354 5,000 -480 Descending Atlanta Center
08:05PM 35.6728 -81.5744 65° Northeast 292 336 4,800 -720 Descending Atlanta Center
08:06PM 35.7006 -81.5044 64° Northeast 253 291 3,600 -1,020 Descending Atlanta Center
08:07PM 35.7325 -81.4369 60° Northeast 226 260 2,800 -420 Descending Atlanta Center
08:08PM 35.7750 -81.3767 49° Northeast 212 244 2,800 -480 Level Atlanta Center
08:09PM 35.7597 -81.3542 130° Southeast 101 116 1,900 -780 Descending Atlanta Center
08:10PM 35.7436 -81.3728 223° Southwest 66 76 1,300 -300 Descending Atlanta Center
08:11PM 35.7397 -81.3908 255° West 90 104 1,300  Level Atlanta Center